Weather observations for the past three days for
Albion Municipal Airport
Metric (Imperial)
Date Time (cdt) Wind (kph) Vis. (km) Weather Sky Cond. Temperature (ºC) Relative Humidity Wind Chill (°C) Heat Index (°C) Pressure Precipitation (cm)
Air Dwpt 6 hour altimeter (cm) sea level (mb) 1 hr 3 hr 6 hr
Max. Min.
01 11:55 E 15 16.09 Fair CLR 29.5 22 64% 33 76.1 0.0
01 11:35 E 15 16.09 Fair CLR 29.5 22.7 67% 33 76.1 0.0
01 11:15 NE 11 16.09 Fair CLR 28.3 22.5 71% 31 76.1 0.0
01 10:55 NE 15 16.09 Fair CLR 28.3 22.2 70% 31 76.1 0.0
01 10:35 N 13 16.09 Fair CLR 27.7 22.5 73% 31 76.1 0.0
01 10:15 N 9 16.09 Fair CLR 27.2 22 73% 30 76.1 0.0
01 09:55 N 9 16.09 Fair CLR 26.8 22 75% 29 76.12 0.0
01 09:35 NW 9 16.09 Fair CLR 24.8 21.7 83% 25 76.15 0.0
01 09:15 N 6 16.09 Fair CLR 23.9 21.3 85% 24 76.15 0.0
01 08:55 N 7 16.09 Fair CLR 25 21.3 80% 26 76.17 0.0
01 08:35 N 7 16.09 Fair CLR 23.3 20.9 86% 76.15 0.0
01 08:15 N 9 16.09 Fair CLR 21.7 20.1 91% 76.17 0.0
01 07:55 NW 6 11.27 Fair CLR 21 19.7 92% 76.15 0.0
01 07:35 NW 9 11.27 Partly Cloudy SCT095 20.5 19.5 94% 76.12 0.0
01 07:15 NW 9 11.27 Fair CLR 20.2 19.1 93% 76.12 0.0
01 06:55 W 6 16.09 Fair CLR 20.2 19.1 21.5 18.8 93% 76.1 0.0
01 06:35 NW 6 16.09 Fair CLR 19.6 18.5 93% 76.07 0.0
01 06:15 NW 7 16.09 Fair CLR 19.5 18.5 94% 76.05 0.0
01 05:55 Calm 16.09 Fair CLR 19.2 18.1 93% 76.05 0.0
01 05:15 Calm 16.09 Fair CLR 19 18 94% 76.07 0.0
01 04:55 Calm 16.09 Fair CLR 19.2 18.2 94% 76.07 0.0
01 04:35 Calm 11.27 Fair CLR 19.4 18.5 95% 76.1 0.0
01 04:15 Calm 11.27 Fair CLR 19.9 18.9 94% 76.1 0.0
01 03:55 Calm 16.09 Fair CLR 20.2 19.1 93% 76.1 0.0
01 03:35 Calm 16.09 Fair CLR 20.5 19.7 95% 76.12 0.0
01 03:15 Calm 11.27 Fair CLR 20.7 19.9 95% 76.1 0.0
01 02:55 Calm 11.27 Fair CLR 21 20 94% 76.1 0.0
01 02:35 Calm 16.09 Fair CLR 21.1 20 93% 76.1 0.0
01 02:15 Calm 16.09 Fair CLR 21.3 20.1 93% 76.1 0.0
01 01:55 Calm 16.09 Fair CLR 21.4 20 92% 76.12 0.0
01 01:35 Calm 16.09 Fair CLR 21.5 20.1 92% 76.15 0.0
01 01:15 Calm 16.09 Fair CLR 21.5 20.1 92% 76.15 0.0
01 00:55 Calm 16.09 Fair CLR 21.7 20.1 29.5 21.5 91% 76.15 0.0
01 00:35 Calm 16.09 Fair CLR 21.7 20.2 91% 76.15 0.0
01 00:15 Calm 16.09 Fair CLR 21.8 20.2 91% 76.15 0.0
31 23:55 Calm 16.09 Fair CLR 22.1 20.5 91% 76.15 0.0
31 23:35 Calm 16.09 Fair CLR 21.5 20.1 92% 76.17 0.0
31 23:15 Calm 16.09 Fair CLR 22 20.1 89% 76.17 0.0
31 22:55 Calm 16.09 Fair CLR 21.8 20 90% 76.17 0.0
31 22:35 Calm 16.09 Fair CLR 22 20.1 89% 76.17 0.0
31 22:15 Calm 16.09 Fair CLR 22.3 20.6 90% 76.15 0.0
31 21:55 Calm 16.09 Fair CLR 23.1 20.5 85% 76.12 0.0
31 21:35 Calm 16.09 Fair CLR 23.3 21 87% 76.1 0.0
31 21:15 Calm 16.09 Fair CLR 22.7 20.2 86% 76.1 0.0
31 20:55 Calm 16.09 Fair CLR 24.6 21 80% 25 76.07 0.0
31 20:35 Calm 16.09 Fair CLR 25.3 20.5 75% 26 76.07 0.0
31 20:15 E 6 16.09 Fair CLR 26.3 20.7 71% 28 76.07 0.0
31 19:55 Calm 16.09 Fair CLR 27 21.2 71% 29 76.07 0.0
31 19:35 SE 6 16.09 Fair CLR 28.3 21.5 67% 31 76.07 0.0
31 19:15 SE 6 16.09 Fair CLR 29.2 20.4 59% 31 76.1 0.0
31 18:35 S 9 16.09 Fair CLR 29.8 20.1 56% 32 76.1 0.0
31 18:15 S 9 16.09 Fair CLR 29.9 20.3 56% 32 76.1 0.0
31 17:55 S 7 16.09 Fair CLR 30 20 55% 32 76.1 0.0
31 17:35 S 9 16.09 Fair CLR 30.4 19.7 53% 32 76.1 0.0
31 17:15 SE 9 16.09 Fair CLR 30.4 20.6 56% 33 76.1 0.0
31 16:55 S 11 16.09 Fair CLR 30.4 21.2 58% 33 76.12 0.0
31 16:35 S 9 16.09 Fair CLR 30.1 20.6 57% 32 76.12 0.0
31 16:15 SW 7 16.09 Fair CLR 29.9 20.1 56% 32 76.12 0.0
31 15:55 S 11 16.09 Fair CLR 30 20.3 56% 32 76.15 0.0
31 15:35 S 13 16.09 Fair CLR 30.4 20.7 56% 33 76.15 0.0
31 15:15 SE 9 16.09 Fair CLR 30.1 20 55% 32 76.15 0.0
31 14:55 SE 9 16.09 Fair CLR 30.4 20 54% 32 76.15 0.0
31 14:35 Calm 16.09 Fair CLR 30.2 19.7 53% 32 76.15 0.0
31 14:15 S 9 16.09 Fair CLR 29.7 19 53% 31 76.15 0.0
31 13:55 E 6 16.09 Fair CLR 29.3 19.2 55% 31 76.17 0.0
31 13:35 NE 6 16.09 Fair CLR 28.8 18.6 54% 30 76.17 0.0
31 13:15 Calm 16.09 Fair CLR 28.6 18.3 54% 30 76.17 0.0
31 12:55 NW 6 16.09 Fair CLR 27.9 18.1 28 18.6 55% 29 76.17 0.0
31 12:35 N 13 16.09 Fair CLR 27.5 17.7 55% 28 76.17 0.0
31 12:15 NW 17 16.09 Fair CLR 26.5 17.3 57% 27 76.17 0.0
31 11:55 N 17 16.09 Fair CLR 26 17 58% 27 76.17 0.0
31 11:35 NW 22 16.09 Fair CLR 25.3 16.9 60% 26 76.15 0.0
31 11:15 NW 20 16.09 Fair CLR 24.5 16.6 62% 26 76.17 0.0
31 10:55 NW 17 16.09 Fair CLR 24.3 16.3 61% 25 76.17 0.0
31 10:35 NW 20 16.09 Fair CLR 23.6 15.9 62% 76.15 0.0
31 10:15 NW 20 16.09 Fair CLR 22.6 15.5 64% 76.17 0.0
31 09:55 NW 13 16.09 Partly Cloudy SCT120 21.3 16 72% 76.17 0.0
31 09:35 NW 15 16.09 Mostly Cloudy BKN110 20.5 15.9 75% 76.17 0.0
31 09:15 NW 15 16.09 Mostly Cloudy BKN110 20.2 16.1 77% 76.17 0.0
31 08:55 NW 17 16.09 Partly Cloudy SCT110 19.8 16.3 80% 76.15 0.0
31 08:35 NW 15 16.09 Fair CLR 19.5 16.3 82% 76.15 0.0
31 08:15 NW 7 16.09 Fair CLR 19.3 16.5 84% 76.17 0.0
31 07:55 W 9 16.09 Partly Cloudy SCT110 19.1 16.6 86% 76.23 0.0
31 07:35 SW 13 16.09 Mostly Cloudy BKN110 19 16.5 86% 76.23 0.0
31 07:15 NW 6 16.09 Partly Cloudy SCT120 18.7 16.8 89% 76.1 0.0
31 06:55 NW 9 16.09 Fair CLR 18.7 16.6 23.3 18.6 88% 76.07 0.0
31 06:35 NW 6 16.09 Fair CLR 19 16.5 86% 76.02 0.0
31 06:15 NW 11 16.09 Fair CLR 19.2 16.3 83% 76 0.0
31 05:55 NW 17 16.09 Fair CLR 19.4 16.4 83% 76 0.0
31 05:35 NW 15 16.09 Fair CLR 19.8 16.5 81% 75.97 0.0
31 05:15 NW 19 G 26 16.09 Fair CLR 20 16.6 81% 76 0.0
31 04:55 NW 15 16.09 Fair CLR 20.5 16.8 79% 75.97 0.0
31 04:35 NW 17 16.09 Fair CLR 21.7 17.3 76% 75.95 0.0
31 04:15 NW 13 16.09 Fair CLR 20.8 19.5 92% 75.9 0.0
31 03:55 Calm 16.09 Fair CLR 20.9 19.6 92% 75.9 0.0
31 03:35 Calm 16.09 Fair CLR 21.1 19.6 91% 75.87 0.0
31 03:15 Calm 16.09 Fair CLR 21.3 19.9 92% 75.87 0.0
31 02:55 NW 15 16.09 Fair CLR 22.7 20.6 88% 75.84 0.0
31 02:35 Calm 16.09 Fair CLR 22.1 20.4 90% 75.84 0.0
31 02:15 Calm 16.09 Fair CLR 21.7 20.2 91% 75.82 0.0
31 01:55 Calm 16.09 Fair CLR 22.8 20.7 88% 75.84 0.0
31 01:35 Calm 16.09 Fair CLR 22.5 20.6 89% 75.84 0.0
31 01:15 Calm 16.09 Fair CLR 22.7 20.9 90% 75.84 0.0
31 00:55 Calm 16.09 Fair CLR 22.2 21 30.3 21.8 93% 75.82 0.0
31 00:35 W 6 16.09 Fair CLR 24.2 21.6 85% 24 75.79 0.0
31 00:15 Calm 16.09 Fair CLR 22.9 21.1 90% 75.79 0.0
30 23:55 SE 6 16.09 Fair CLR 23.5 21.3 88% 75.79 0.0
30 23:35 Calm 16.09 Fair CLR 23.1 21.2 89% 75.79 0.0
30 23:15 SE 6 16.09 Fair CLR 24.3 21.9 87% 24 75.79 0.0
30 22:55 SE 6 11.27 Fair CLR 24 21.8 88% 24 75.79 0.0
30 22:35 Calm 16.09 Fair CLR 24.3 21.9 87% 24 75.82 0.0
30 22:15 Calm 16.09 Fair CLR 24.3 21.7 85% 24 75.82 0.0
30 21:55 Calm 16.09 Fair CLR 24.7 21.2 81% 25 75.82 0.0
30 21:35 SE 6 16.09 Fair CLR 24.5 20.6 79% 25 75.82 0.0
30 21:15 Calm 16.09 Fair CLR 25.7 21 75% 27 75.79 0.0
30 20:55 Calm 16.09 Fair CLR 25.6 21.3 77% 27 75.79 0.0
30 20:35 Calm 16.09 Fair CLR 25.8 21.5 77% 27 75.77 0.0
30 20:15 SE 6 16.09 Fair CLR 26 21.7 77% 28 75.77 0.0
30 19:55 Calm 16.09 Fair CLR 27.7 22.1 72% 30 75.77 0.0
30 19:35 S 6 16.09 Fair CLR 29.1 22.6 68% 33 75.77 0.0
30 19:15 S 6 16.09 Fair CLR 29.7 22.8 66% 34 75.77 0.0
30 18:55 S 6 16.09 Fair CLR 30.5 22.4 32.8 30.4 62% 34 75.77 0.0
30 18:35 S 6 16.09 Fair CLR 30.8 21.9 59% 34 75.77 0.0
30 18:15 S 9 16.09 Fair CLR 31 21.1 56% 34 75.74 0.0
30 17:55 S 9 16.09 Fair CLR 31.7 19.7 49% 34 75.74 0.0
30 17:35 S 11 16.09 Fair CLR 31.7 19.1 47% 33 75.72 0.0
30 17:15 SW 9 16.09 Fair CLR 32.4 18.7 44% 34 75.72 0.0
30 16:55 SW 11 16.09 Fair CLR 32.5 20 48% 35 75.72 0.0
30 16:35 SW 13 16.09 Fair CLR 32.5 18.4 43% 34 75.69 0.0
30 16:15 SW 11 16.09 Fair CLR 32.8 17.6 40% 34 75.69 0.0
30 15:55 SW 11 16.09 Fair CLR 32.5 19.2 45% 34 75.72 0.0
30 15:35 SW 9 16.09 Fair CLR 32.4 19.9 48% 35 75.72 0.0
30 15:15 Calm 16.09 Fair CLR 32 18.6 45% 33 75.69 0.0
30 14:55 W 6 16.09 Fair CLR 31.8 19.3 47% 33 75.72 0.0
30 14:35 W 7 16.09 Fair CLR 31.5 18.8 47% 33 75.72 0.0
30 14:15 W 7 16.09 Fair CLR 31.4 18.8 47% 33 75.69 0.0
30 13:55 W 11 16.09 Fair CLR 32.3 18.6 44% 34 75.69 0.0
30 13:35 W 9 16.09 Fair CLR 31.4 19.2 48% 33 75.74 0.0
30 13:15 W 9 16.09 Fair CLR 30.9 19.4 50% 33 75.77 0.0
30 12:55 W 7 16.09 Fair CLR 31 18.7 31.4 21 48% 32 75.77 0.0
30 12:35 W 11 16.09 Fair CLR 31 19.1 49% 32 75.77 0.0
30 12:15 W 11 16.09 Fair CLR 30.7 19.4 51% 32 75.77 0.0
30 11:55 W 7 16.09 Fair CLR 30.1 19.8 54% 32 75.77 0.0
30 11:35 W 9 16.09 Fair CLR 29.6 18.3 51% 31 75.77 0.0
30 11:15 SW 9 16.09 Fair CLR 29.5 20.3 58% 32 75.74 0.0
30 10:55 SW 7 16.09 Fair CLR 28.5 19.3 58% 30 75.74 0.0
30 10:35 SW 6 16.09 Fair CLR 28.5 19.6 59% 30 75.74 0.0
30 10:15 SW 9 16.09 Fair CLR 27.8 19.6 61% 29 75.74 0.0
30 09:55 S 7 16.09 Fair CLR 27.8 19.3 60% 29 75.72 0.0
30 09:35 SE 7 16.09 Fair CLR 26.5 19.4 65% 28 75.74 0.0
30 09:15 S 6 16.09 Fair CLR 25.3 18.9 68% 26 75.74 0.0
30 08:55 Calm 16.09 Fair CLR 24.2 18.8 72% 25 75.74 0.0
30 08:35 Calm 16.09 Fair CLR 23.4 18.4 74% 75.77 0.0
30 08:15 NW 6 16.09 Fair CLR 22.6 18 75% 75.77 0.0
30 07:55 NW 7 16.09 Fair CLR 22.1 18 78% 75.77 0.0
30 07:35 W 9 16.09 Fair CLR 21.5 17.9 80% 75.77 0.0
30 07:15 NW 11 16.09 Fair CLR 21.1 17.8 82% 75.74 0.0
30 06:55 N 7 16.09 Fair CLR 21.8 17.8 27.2 21.8 78% 75.72 0.0
30 06:35 W 9 16.09 Fair CLR 21.9 17.9 78% 75.67 0.0
30 06:15 Calm 16.09 Fair CLR 23.6 17.3 68% 75.64 0.0
30 05:55 NW 9 16.09 Fair CLR 23 18 74% 75.59 0.0
30 05:35 S 6 16.09 Thunderstorm in Vicinity SCT070 SCT090 22.5 18.5 78% 75.54 0.0
30 05:15 E 9 16.09 Thunderstorm Light Rain SCT050 SCT070 SCT090 22.5 18.4 78% 75.49 0.0
30 04:55 E 9 16.09 Thunderstorm Light Rain SCT100 SCT110 23.5 17.9 71% 75.62 0.0
30 04:35 S 9 16.09 Thunderstorm in Vicinity CLR 24.7 17 62% 26 75.69 0.0
30 04:15 SW 11 G 26 16.09 Fair CLR 25.5 16.9 59% 26 75.74 0.0
30 03:55 W 17 G 28 16.09 Fair CLR 27.1 16.5 52% 28 75.72 0.0
30 03:35 W 17 G 37 16.09 Thunderstorm CLR 26 17.8 61% 27 75.74 0.0
30 03:15 SW 24 G 39 16.09 Thunderstorm in Vicinity CLR 25.4 20.7 75% 27 75.82 0.0
30 02:55 Calm 16.09 Fair CLR 22.9 21.3 91% 75.74 0.0
30 02:35 SE 7 16.09 Fair CLR 22.6 21.2 92% 75.72 0.0
30 02:15 Calm 16.09 Fair CLR 22.9 21.2 90% 75.72 0.0
30 01:55 Calm 16.09 Fair CLR 22.8 21.3 91% 75.74 0.0
30 01:35 Calm 16.09 Fair CLR 23 21.5 91% 75.72 0.0
30 01:15 Calm 16.09 Fair CLR 23.8 21.9 89% 75.69 0.0
30 00:55 Calm 16.09 Fair CLR 23.9 22 30.5 23.5 89% 23 75.72 0.0
30 00:35 NW 9 16.09 Fair CLR 24.4 22 87% 25 75.74 0.0
30 00:15 Calm 16.09 Fair CLR 24.8 22 84% 25 75.72 0.0
29 23:55 SE 9 16.09 Fair CLR 24.9 21.8 83% 26 75.72 0.0
29 23:35 Calm 16.09 Fair CLR 24.2 21.6 85% 24 75.72 0.0
29 23:15 Calm 16.09 Fair CLR 25.1 21.5 81% 26 75.72 0.0
29 22:55 Calm 16.09 Fair CLR 26.6 21.5 74% 28 75.72 0.0
29 22:35 SE 7 16.09 Fair CLR 26.2 21.5 75% 28 75.72 0.0
29 22:15 SE 15 16.09 Fair CLR 27.3 21.6 71% 29 75.72 0.0
29 21:55 SE 6 11.27 Fair CLR 27.2 21.9 73% 29 75.72 0.0
29 21:35 Calm 16.09 Fair CLR 27 22.4 76% 29 75.72 0.0
29 21:15 Calm 16.09 Fair CLR 26.7 22.6 78% 29 75.69 0.0
29 20:55 Calm 16.09 Fair CLR 26.9 22.7 78% 29 75.69 0.0
29 20:35 S 7 16.09 Fair CLR 26.5 22.7 80% 29 75.69 0.0
29 20:15 S 6 16.09 Fair CLR 27.3 22.8 76% 30 75.69 0.0
29 19:55 S 6 16.09 Fair CLR 28.3 23 73% 32 75.67 0.0
29 19:35 S 6 16.09 Fair CLR 28.9 23.1 71% 33 75.67 0.0
29 19:15 S 9 16.09 Fair CLR 29.6 22.9 67% 34 75.67 0.0
29 18:35 S 11 16.09 Fair CLR 31.1 23.1 62% 36 75.67 0.0
29 18:15 S 17 16.09 Fair CLR 32.1 23.2 59% 37 75.67 0.0
29 17:55 S 11 16.09 Fair CLR 32.2 23.1 59% 37 75.67 0.0
29 17:35 S 9 16.09 Fair CLR 31.5 22.7 60% 36 75.67 0.0
29 17:15 S 7 16.09 Fair CLR 31.3 22.1 58% 35 75.67 0.0
29 16:55 S 13 16.09 Fair CLR 31.7 22.1 57% 35 75.67 0.0
29 16:35 SW 13 16.09 Fair CLR 32.3 21.6 53% 36 75.67 0.0
29 16:15 S 19 16.09 Fair CLR 32.5 21.2 51% 36 75.69 0.0
29 15:55 SW 15 16.09 Fair CLR 32.5 21.5 52% 36 75.69 0.0
29 15:35 SW 13 16.09 Fair CLR 32.3 21.1 52% 35 75.72 0.0
29 15:15 S 19 16.09 Fair CLR 32.6 21.3 51% 36 75.72 0.0
29 14:55 S 15 16.09 Fair CLR 32.2 20.9 51% 35 75.72 0.0
29 14:35 SW 20 16.09 Fair CLR 32.3 20.5 50% 35 75.74 0.0
29 14:15 S 15 16.09 Fair CLR 32 20.2 50% 34 75.74 0.0
29 13:55 SW 17 16.09 Fair CLR 31.7 19.6 49% 34 75.74 0.0
29 13:35 SW 15 16.09 Fair CLR 31.4 20.2 51% 34 75.74 0.0
29 13:15 SW 19 16.09 Fair CLR 30.7 19.2 50% 32 75.74 0.0
29 12:55 SW 11 16.09 Fair CLR 29.7 19.5 30.1 19.7 54% 31 75.77 0.0
29 12:35 SW 15 16.09 Fair CLR 29.5 20.4 58% 32 75.77 0.0
29 12:15 S 15 16.09 Fair CLR 28.1 18.5 56% 29 75.82 0.0
Date Time (cdt) Wind (kph) Vis. (km) Weather Sky Cond. Air Dwpt Max. Min. Relative Humidity Wind Chill (°C) Heat Index (°C) altimeter (cm) sea level (mb) 1 hr 3 hr 6 hr
6 hour
Temperature (ºC) Pressure Precipitation (cm)